Time;durP1;ratioP1;P1;durP2;ratioP2;P2;SDS_P1;SDS_P2;PMS_P1;PMS_P2;Temp;Humidity;BMP_temperature;BMP_pressure;BME280_temperature;BME280_humidity;BME280_pressure;Samples;Min_cycle;Max_cycle;Signal;HPM_P1;HPM_P2
2022/04/15 00:01:49;;;;;;;9.57;6.60;;;11.10;76.00;;;;;;5099779;28;20024;-72
2022/04/15 00:04:15;;;;;;;10.65;6.45;;;11.00;76.10;;;;;;5113922;27;20027;-71
2022/04/15 00:06:40;;;;;;;9.68;7.35;;;11.00;76.20;;;;;;5106134;27;20024;-71
2022/04/15 00:09:06;;;;;;;8.18;5.88;;;11.00;76.50;;;;;;5107461;27;20024;-70
2022/04/15 00:11:32;;;;;;;9.10;5.78;;;10.90;76.40;;;;;;5089038;28;20031;-71
2022/04/15 00:13:58;;;;;;;9.13;6.00;;;10.90;76.50;;;;;;5087025;28;20040;-70
2022/04/15 00:16:24;;;;;;;7.53;5.88;;;10.90;76.60;;;;;;5108019;28;20424;-72
2022/04/15 00:18:49;;;;;;;6.85;5.32;;;10.90;76.70;;;;;;5104808;27;20024;-70
2022/04/15 00:21:15;;;;;;;6.97;5.20;;;10.80;76.60;;;;;;5107471;28;20027;-71
2022/04/15 00:23:41;;;;;;;9.02;6.50;;;10.80;76.50;;;;;;5106065;28;20039;-71
2022/04/15 00:26:06;;;;;;;7.97;5.63;;;10.80;76.60;;;;;;5104726;27;21404;-71
2022/04/15 00:28:32;;;;;;;8.55;5.93;;;10.70;76.50;;;;;;5116848;27;20045;-70
2022/04/15 00:30:58;;;;;;;8.25;5.97;;;10.70;76.60;;;;;;5102231;27;20024;-70
2022/04/15 00:33:24;;;;;;;7.68;5.75;;;10.70;76.80;;;;;;5091256;28;20405;-71
2022/04/15 00:35:50;;;;;;;10.80;6.00;;;10.70;76.90;;;;;;5101933;28;20137;-70
2022/04/15 00:38:17;;;;;;;10.57;6.47;;;10.60;76.90;;;;;;5103561;28;20019;-70
2022/04/15 00:40:43;;;;;;;7.25;5.45;;;10.60;77.00;;;;;;5098278;28;20081;-71
2022/04/15 00:43:08;;;;;;;6.32;4.97;;;10.60;77.00;;;;;;5086624;28;20027;-69
2022/04/15 00:45:34;;;;;;;9.45;6.45;;;10.60;76.90;;;;;;5101547;28;20043;-68
2022/04/15 00:48:01;;;;;;;8.80;6.40;;;10.60;76.90;;;;;;5105579;28;20032;-72
2022/04/15 00:50:29;;;;;;;7.88;6.05;;;10.60;77.00;;;;;;5081414;28;20024;-71
2022/04/15 00:52:58;;;;;;;9.48;6.85;;;10.60;77.70;;;;;;5092085;28;20024;-71
2022/04/15 00:55:25;;;;;;;8.98;6.70;;;10.60;77.00;;;;;;5101242;28;20478;-73
2022/04/15 00:57:58;;;;;;;8.70;6.53;;;10.60;77.00;;;;;;5098592;28;20422;-69
2022/04/15 01:00:28;;;;;;;9.50;6.60;;;10.60;77.00;;;;;;5110288;27;20050;-72
2022/04/15 01:02:57;;;;;;;8.93;6.68;;;10.60;77.10;;;;;;5102097;28;20077;-71
2022/04/15 01:05:22;;;;;;;8.70;6.53;;;10.60;77.10;;;;;;5099258;28;20036;-71
2022/04/15 01:07:49;;;;;;;8.35;5.95;;;10.60;77.00;;;;;;5098658;28;20505;-71
2022/04/15 01:10:16;;;;;;;7.45;5.90;;;10.60;77.00;;;;;;5104983;28;20012;-71
2022/04/15 01:12:51;;;;;;;8.38;6.07;;;10.50;76.90;;;;;;5115813;27;20069;-71
2022/04/15 01:15:18;;;;;;;9.30;6.63;;;10.50;76.90;;;;;;5110376;27;20034;-73
2022/04/15 01:17:44;;;;;;;6.72;5.43;;;10.50;77.00;;;;;;5104762;28;20114;-71
2022/04/15 01:20:11;;;;;;;7.47;5.78;;;10.50;77.10;;;;;;5111856;27;20103;-73
2022/04/15 01:22:39;;;;;;;8.73;7.00;;;10.40;77.00;;;;;;5112818;27;20054;-72
2022/04/15 01:25:10;;;;;;;9.63;6.75;;;10.40;77.10;;;;;;5091317;28;20024;-72
2022/04/15 01:27:38;;;;;;;10.60;6.75;;;10.30;77.20;;;;;;5083342;28;20477;-73
2022/04/15 01:30:13;;;;;;;12.30;7.40;;;10.30;77.40;;;;;;5106737;28;20062;-72
2022/04/15 01:32:39;;;;;;;13.85;7.30;;;10.30;77.60;;;;;;5086830;28;20114;-72
2022/04/15 01:35:07;;;;;;;10.13;5.88;;;10.20;77.90;;;;;;5108216;28;20052;-72
2022/04/15 01:37:35;;;;;;;14.60;6.32;;;10.20;77.90;;;;;;5103371;28;20497;-71
2022/04/15 01:40:01;;;;;;;10.95;6.35;;;10.20;77.90;;;;;;5090526;28;20057;-71
2022/04/15 01:42:27;;;;;;;14.43;5.30;;;10.20;78.00;;;;;;5093786;28;20027;-71
2022/04/15 01:44:52;;;;;;;10.20;6.07;;;10.10;78.00;;;;;;5112324;27;20032;-70
2022/04/15 01:47:18;;;;;;;9.38;5.70;;;10.10;78.00;;;;;;5106852;28;20035;-72
2022/04/15 01:49:44;;;;;;;13.25;5.57;;;10.10;78.00;;;;;;5090741;28;20016;-71
2022/04/15 01:52:10;;;;;;;12.07;6.18;;;10.20;78.10;;;;;;5103651;27;20468;-71
2022/04/15 01:54:36;;;;;;;11.43;6.93;;;10.20;78.10;;;;;;5112943;28;20141;-71
2022/04/15 01:57:02;;;;;;;11.68;6.28;;;10.20;78.00;;;;;;5115242;27;20032;-71
2022/04/15 01:59:28;;;;;;;15.98;6.07;;;10.10;78.10;;;;;;5113095;28;20387;-72
2022/04/15 02:01:54;;;;;;;18.67;5.38;;;10.00;78.10;;;;;;5106311;27;20019;-69
2022/04/15 02:04:24;;;;;;;10.45;5.93;;;10.00;78.30;;;;;;5114639;27;20031;-70
2022/04/15 02:06:50;;;;;;;9.25;5.38;;;9.90;78.30;;;;;;5109677;27;20500;-69
2022/04/15 02:09:15;;;;;;;20.17;6.13;;;9.90;78.30;;;;;;5111523;27;20161;-71
2022/04/15 02:11:42;;;;;;;15.77;5.65;;;9.80;78.30;;;;;;5107316;27;20039;-71
2022/04/15 02:14:07;;;;;;;14.02;5.63;;;9.70;78.40;;;;;;5102391;28;20027;-71
2022/04/15 02:16:33;;;;;;;17.35;5.88;;;9.60;78.60;;;;;;5105942;28;20485;-71
2022/04/15 02:18:59;;;;;;;12.60;5.35;;;9.50;78.60;;;;;;5113015;28;20639;-71
2022/04/15 02:21:25;;;;;;;4.95;3.78;;;9.40;78.70;;;;;;5087748;28;20076;-71
2022/04/15 02:23:50;;;;;;;6.88;3.78;;;9.40;78.80;;;;;;5104282;27;20028;-70
2022/04/15 02:26:16;;;;;;;10.63;4.43;;;9.30;79.00;;;;;;5103105;27;20019;-71
2022/04/15 02:28:41;;;;;;;6.80;4.82;;;9.30;78.90;;;;;;5087972;28;20031;-71
2022/04/15 02:31:07;;;;;;;7.80;4.35;;;9.40;79.00;;;;;;5089775;27;20096;-72
2022/04/15 02:33:32;;;;;;;27.08;5.50;;;9.40;79.00;;;;;;5081421;28;20504;-73
2022/04/15 02:35:58;;;;;;;6.78;4.80;;;9.30;78.90;;;;;;5111541;27;20028;-71
2022/04/15 02:38:24;;;;;;;7.28;4.70;;;9.30;79.00;;;;;;5114612;27;20726;-72
2022/04/15 02:40:49;;;;;;;5.32;4.28;;;9.30;79.10;;;;;;5109494;28;20088;-71
2022/04/15 02:43:15;;;;;;;6.25;4.03;;;9.40;79.20;;;;;;5104590;27;20027;-72
2022/04/15 02:45:42;;;;;;;6.93;4.60;;;9.40;79.00;;;;;;5104537;27;20674;-71
2022/04/15 02:48:07;;;;;;;7.60;4.40;;;9.40;78.90;;;;;;5113461;27;20038;-71
2022/04/15 02:50:33;;;;;;;6.55;4.53;;;9.50;78.90;;;;;;5111226;27;20035;-72
2022/04/15 02:52:59;;;;;;;13.50;5.10;;;9.50;78.80;;;;;;5102862;27;20032;-71
2022/04/15 02:55:25;;;;;;;6.85;5.00;;;9.60;78.80;;;;;;5088972;28;20390;-72
2022/04/15 02:57:51;;;;;;;7.32;4.90;;;9.60;78.80;;;;;;5095817;28;20194;-71
2022/04/15 03:00:18;;;;;;;5.80;4.57;;;9.70;78.90;;;;;;5105380;27;20069;-71
2022/04/15 03:02:43;;;;;;;7.70;4.95;;;9.70;78.80;;;;;;5110111;27;20042;-72
2022/04/15 03:05:09;;;;;;;5.50;4.55;;;9.70;78.70;;;;;;5107092;28;20595;-72
2022/04/15 03:07:38;;;;;;;8.15;4.63;;;9.80;78.70;;;;;;5081177;28;20016;-73
2022/04/15 03:10:05;;;;;;;6.00;5.00;;;9.80;78.70;;;;;;5088482;28;20028;-73
2022/04/15 03:12:35;;;;;;;9.32;5.72;;;9.90;78.60;;;;;;5089161;28;20268;-71
2022/04/15 03:15:02;;;;;;;7.10;4.60;;;9.90;78.60;;;;;;5093160;27;20015;-72
2022/04/15 03:17:27;;;;;;;8.98;5.00;;;9.90;78.60;;;;;;5090545;28;20469;-71
2022/04/15 03:19:53;;;;;;;7.88;5.28;;;9.90;78.50;;;;;;5103420;28;20032;-71
2022/04/15 03:22:20;;;;;;;9.77;7.13;;;9.90;78.60;;;;;;5090738;28;20595;-71
2022/04/15 03:24:47;;;;;;;8.57;6.25;;;9.90;78.90;;;;;;5099288;28;20426;-70
2022/04/15 03:27:13;;;;;;;9.00;5.70;;;9.90;79.00;;;;;;5108905;28;20389;-71
2022/04/15 03:29:38;;;;;;;6.13;5.13;;;9.90;79.20;;;;;;5109199;28;20049;-70
2022/04/15 03:32:04;;;;;;;7.82;5.18;;;9.80;79.00;;;;;;5093256;27;20027;-71
2022/04/15 03:34:30;;;;;;;7.30;5.80;;;9.90;79.10;;;;;;5112139;27;20478;-70
2022/04/15 03:36:55;;;;;;;6.45;5.47;;;9.90;79.10;;;;;;5111049;27;20047;-73
2022/04/15 03:39:21;;;;;;;7.88;5.72;;;9.90;79.10;;;;;;5117750;27;20103;-73
2022/04/15 03:41:46;;;;;;;7.63;5.45;;;9.90;79.10;;;;;;5106906;27;20015;-72
2022/04/15 03:44:12;;;;;;;7.13;5.18;;;9.90;79.10;;;;;;5103309;28;20473;-72
2022/04/15 03:46:38;;;;;;;7.45;5.50;;;9.90;79.10;;;;;;5090263;28;20081;-72
2022/04/15 03:49:04;;;;;;;8.13;5.65;;;9.90;79.10;;;;;;5100590;28;20028;-73
2022/04/15 03:51:30;;;;;;;7.38;5.78;;;10.00;79.10;;;;;;5103420;27;20664;-71
2022/04/15 03:53:56;;;;;;;8.02;5.53;;;10.00;79.00;;;;;;5117623;27;20027;-71
2022/04/15 03:56:21;;;;;;;6.88;5.20;;;10.00;79.50;;;;;;5103663;28;20031;-72
2022/04/15 03:58:47;;;;;;;8.15;5.03;;;10.10;78.90;;;;;;5083194;28;20035;-69
2022/04/15 04:01:12;;;;;;;9.13;6.45;;;10.10;78.80;;;;;;5105552;28;20030;-69
2022/04/15 04:03:38;;;;;;;9.50;6.00;;;10.00;78.90;;;;;;5103792;28;20036;-70
2022/04/15 04:06:03;;;;;;;9.00;6.30;;;10.00;78.90;;;;;;5104285;28;20024;-71
2022/04/15 04:08:29;;;;;;;8.43;5.22;;;10.00;79.20;;;;;;5107835;27;20031;-69
2022/04/15 04:10:55;;;;;;;7.10;5.45;;;10.00;79.10;;;;;;5091934;27;20031;-70
2022/04/15 04:13:21;;;;;;;5.90;4.60;;;9.90;78.90;;;;;;5099247;28;20482;-70
2022/04/15 04:15:46;;;;;;;7.18;4.68;;;9.90;78.90;;;;;;5086175;28;20024;-70
2022/04/15 04:18:14;;;;;;;7.90;4.90;;;9.90;78.90;;;;;;5113884;27;20097;-70
2022/04/15 04:20:40;;;;;;;5.55;4.30;;;9.80;78.80;;;;;;5109232;27;20027;-68
2022/04/15 04:23:05;;;;;;;7.30;4.38;;;9.80;78.70;;;;;;5116534;27;20094;-69
2022/04/15 04:25:31;;;;;;;5.93;4.10;;;9.80;78.70;;;;;;5106081;27;20052;-71
2022/04/15 04:27:57;;;;;;;4.93;3.80;;;9.90;78.60;;;;;;5108053;27;20450;-72
2022/04/15 04:30:23;;;;;;;6.43;4.25;;;9.90;78.40;;;;;;5089360;28;20023;-70
2022/04/15 04:32:52;;;;;;;6.25;4.20;;;9.90;78.30;;;;;;5106738;28;20038;-70
2022/04/15 04:35:19;;;;;;;5.40;4.30;;;9.90;78.20;;;;;;5097819;28;20036;-72
2022/04/15 04:37:45;;;;;;;6.90;4.32;;;9.90;78.00;;;;;;5092041;28;20550;-71
2022/04/15 04:40:11;;;;;;;5.07;4.10;;;9.90;77.90;;;;;;5089745;28;20115;-71
2022/04/15 04:42:37;;;;;;;7.05;4.25;;;9.90;77.80;;;;;;5097551;27;20083;-71
2022/04/15 04:45:03;;;;;;;7.07;4.82;;;9.90;77.70;;;;;;5110367;27;20075;-71
2022/04/15 04:47:29;;;;;;;5.15;4.15;;;9.90;77.70;;;;;;5106719;28;20069;-71
2022/04/15 04:49:55;;;;;;;7.63;4.97;;;9.90;77.50;;;;;;5090267;28;20028;-72
2022/04/15 04:52:25;;;;;;;7.70;4.60;;;9.90;77.50;;;;;;5112137;27;20019;-72
2022/04/15 04:54:51;;;;;;;5.10;3.90;;;9.90;77.50;;;;;;5097449;28;20055;-72
2022/04/15 04:57:16;;;;;;;6.47;4.45;;;9.90;77.40;;;;;;5108275;28;20051;-72
2022/04/15 04:59:42;;;;;;;6.13;4.65;;;9.90;77.30;;;;;;5113204;27;20088;-72
2022/04/15 05:02:10;;;;;;;5.65;4.38;;;9.90;77.30;;;;;;5101077;28;20113;-73
2022/04/15 05:04:36;;;;;;;4.88;4.38;;;9.90;77.20;;;;;;5092627;28;20035;-72
2022/04/15 05:07:03;;;;;;;6.53;4.88;;;10.00;77.00;;;;;;5100401;28;20028;-72
2022/04/15 05:09:28;;;;;;;6.47;4.50;;;10.00;76.80;;;;;;5100399;27;20097;-72
2022/04/15 05:11:55;;;;;;;9.18;4.40;;;10.00;76.70;;;;;;5096248;28;20069;-74
2022/04/15 05:14:20;;;;;;;5.68;4.35;;;10.00;76.80;;;;;;5105120;27;20023;-73
2022/04/15 05:16:46;;;;;;;7.05;4.57;;;10.00;76.80;;;;;;5112992;27;20023;-72
2022/04/15 05:19:12;;;;;;;7.18;4.72;;;10.00;76.80;;;;;;5118605;27;20027;-72
2022/04/15 05:21:38;;;;;;;7.30;4.63;;;10.00;76.70;;;;;;5105186;28;20040;-72
2022/04/15 05:24:04;;;;;;;7.68;4.47;;;10.00;76.70;;;;;;5111961;27;20027;-73
2022/04/15 05:26:33;;;;;;;5.72;4.13;;;10.00;76.70;;;;;;5108266;27;20128;-72
2022/04/15 05:28:58;;;;;;;6.65;4.40;;;10.10;76.60;;;;;;5116571;27;20042;-74
2022/04/15 05:31:24;;;;;;;5.88;4.30;;;10.30;76.80;;;;;;5085825;28;20482;-74
2022/04/15 05:33:49;;;;;;;5.78;4.50;;;11.30;75.90;;;;;;5106483;28;20081;-72
2022/04/15 05:36:16;;;;;;;7.30;4.78;;;12.30;73.30;;;;;;5106958;28;20027;-71
2022/04/15 05:38:42;;;;;;;5.32;4.28;;;13.00;71.10;;;;;;5108559;28;20560;-72
2022/04/15 05:41:07;;;;;;;4.95;3.88;;;13.90;69.20;;;;;;5110144;28;20047;-71
2022/04/15 05:43:33;;;;;;;6.75;4.50;;;14.90;66.80;;;;;;5086802;28;20040;-72
2022/04/15 05:45:59;;;;;;;5.05;3.85;;;15.50;64.50;;;;;;5084571;28;20027;-72
2022/04/15 05:48:24;;;;;;;5.85;4.00;;;15.40;63.50;;;;;;5099071;28;20117;-73
2022/04/15 05:50:51;;;;;;;7.60;4.43;;;15.10;63.60;;;;;;5077169;28;20011;-70
2022/04/15 05:53:16;;;;;;;6.43;4.00;;;15.00;63.70;;;;;;5080435;28;20769;-72
2022/04/15 05:55:42;;;;;;;5.47;3.33;;;14.80;64.00;;;;;;5102579;28;20069;-70
2022/04/15 05:58:10;;;;;;;5.10;3.78;;;14.60;64.90;;;;;;5100997;28;20027;-72
2022/04/15 06:00:36;;;;;;;5.03;3.60;;;14.40;64.70;;;;;;5096550;28;20035;-72
2022/04/15 06:03:02;;;;;;;4.38;3.67;;;14.20;65.10;;;;;;5102315;28;20027;-71
2022/04/15 06:05:27;;;;;;;4.68;3.20;;;15.00;64.70;;;;;;5082607;28;20032;-70
2022/04/15 06:07:53;;;;;;;4.70;3.20;;;16.40;61.90;;;;;;5103610;28;20042;-72
2022/04/15 06:10:19;;;;;;;4.60;2.78;;;17.30;59.20;;;;;;5091282;28;20374;-73
2022/04/15 06:15:52;;;;;;;4.32;3.10;;;18.10;55.80;;;;;;5040407;28;20212;-72
2022/04/15 06:18:19;;;;;;;4.28;3.25;;;19.10;54.40;;;;;;5091476;28;20043;-72
2022/04/15 06:20:46;;;;;;;4.10;3.25;;;19.70;53.00;;;;;;5080331;28;20080;-72
2022/04/15 06:23:12;;;;;;;4.45;3.03;;;20.40;51.60;;;;;;5099870;28;20434;-73
2022/04/15 06:25:38;;;;;;;3.47;2.50;;;20.90;49.80;;;;;;5098724;28;20040;-73
2022/04/15 06:28:04;;;;;;;3.30;2.70;;;20.50;50.00;;;;;;5085322;28;20024;-72
2022/04/15 06:30:30;;;;;;;4.07;2.80;;;20.70;49.00;;;;;;5089836;27;20375;-73
2022/04/15 06:32:55;;;;;;;3.47;2.10;;;20.70;47.90;;;;;;5107895;27;20027;-71
2022/04/15 06:35:21;;;;;;;3.30;2.30;;;21.40;47.40;;;;;;5087174;28;20015;-71
2022/04/15 06:37:47;;;;;;;3.53;2.30;;;21.70;46.90;;;;;;5102907;28;20020;-70
2022/04/15 06:40:12;;;;;;;3.25;2.30;;;21.50;46.80;;;;;;5102583;27;20029;-71
2022/04/15 06:42:38;;;;;;;3.40;2.28;;;21.50;46.50;;;;;;5085799;28;20023;-71
2022/04/15 06:45:04;;;;;;;3.13;2.10;;;21.70;46.00;;;;;;5105262;28;20655;-70
2022/04/15 06:47:30;;;;;;;2.28;1.90;;;21.50;44.70;;;;;;5086694;27;20113;-71
2022/04/15 06:49:57;;;;;;;3.15;1.77;;;22.20;44.70;;;;;;5080516;28;21237;-70
2022/04/15 06:52:23;;;;;;;2.22;1.77;;;22.50;43.90;;;;;;5093311;27;20445;-72
2022/04/15 06:54:49;;;;;;;2.88;1.73;;;22.50;44.00;;;;;;5097809;28;20100;-70
2022/04/15 06:57:15;;;;;;;1.88;1.30;;;22.20;43.20;;;;;;5084785;28;20035;-69
2022/04/15 06:59:40;;;;;;;2.45;1.70;;;21.70;43.90;;;;;;5101094;28;20031;-69
2022/04/15 07:02:06;;;;;;;2.55;1.80;;;20.40;45.00;;;;;;5093748;27;20095;-70
2022/04/15 07:04:32;;;;;;;2.67;2.03;;;18.90;46.60;;;;;;5104807;28;20126;-69
2022/04/15 07:06:58;;;;;;;3.30;1.95;;;17.40;49.00;;;;;;5099753;28;20382;-69
2022/04/15 07:09:24;;;;;;;2.42;1.88;;;16.10;51.80;;;;;;5097635;27;20016;-68
2022/04/15 07:11:50;;;;;;;2.60;2.00;;;15.10;54.00;;;;;;5099267;28;20055;-69
2022/04/15 07:14:16;;;;;;;3.20;2.00;;;14.40;55.80;;;;;;5099838;28;20019;-68
2022/04/15 07:16:41;;;;;;;1.73;1.63;;;13.80;57.30;;;;;;5103475;27;20040;-69
2022/04/15 07:19:07;;;;;;;2.13;1.77;;;13.40;58.60;;;;;;5098798;28;20031;-69
2022/04/15 07:21:41;;;;;;;2.10;1.50;;;13.40;59.00;;;;;;5098859;27;20119;-68
2022/04/15 07:24:07;;;;;;;3.63;1.90;;;13.10;59.60;;;;;;5100879;28;20058;-68
2022/04/15 07:26:33;;;;;;;3.47;1.80;;;12.90;60.40;;;;;;5099704;28;20111;-68
2022/04/15 07:29:00;;;;;;;2.20;1.70;;;12.80;61.00;;;;;;5099640;28;20382;-68
2022/04/15 07:31:25;;;;;;;2.25;1.73;;;12.50;61.60;;;;;;5093678;27;20031;-69
2022/04/15 07:33:51;;;;;;;2.55;1.80;;;12.30;62.40;;;;;;5097156;28;20209;-69
2022/04/15 07:39:06;;;;;;;2.17;1.50;;;12.20;63.10;;;;;;5099204;28;20056;-69
2022/04/15 07:41:32;;;;;;;2.08;1.58;;;12.20;63.30;;;;;;5102237;27;20015;-69
2022/04/15 07:43:58;;;;;;;3.10;1.90;;;12.10;63.60;;;;;;5103141;27;20023;-69
2022/04/15 07:46:23;;;;;;;3.33;1.83;;;12.00;64.00;;;;;;5081709;27;20043;-69
2022/04/15 07:48:49;;;;;;;4.53;2.10;;;11.90;64.60;;;;;;5095894;28;20119;-69
2022/04/15 07:51:15;;;;;;;2.80;2.00;;;11.80;64.80;;;;;;5080314;28;20110;-71
2022/04/15 07:53:41;;;;;;;2.50;2.00;;;11.80;65.10;;;;;;5081356;28;20028;-69
2022/04/15 07:56:06;;;;;;;2.42;1.90;;;11.70;65.30;;;;;;5078577;28;20594;-69
2022/04/15 07:58:32;;;;;;;2.90;2.00;;;11.70;65.50;;;;;;5097320;28;20041;-69
2022/04/15 08:01:00;;;;;;;2.30;1.70;;;11.60;65.60;;;;;;5081535;28;20028;-70
2022/04/15 08:03:27;;;;;;;3.60;1.75;;;11.60;65.80;;;;;;5077550;28;20027;-69
2022/04/15 08:05:54;;;;;;;1.65;1.50;;;11.70;65.80;;;;;;5098762;28;20051;-69
2022/04/15 08:08:20;;;;;;;2.63;1.75;;;11.70;65.90;;;;;;5097697;27;20023;-70
2022/04/15 08:10:47;;;;;;;2.20;1.92;;;11.70;66.10;;;;;;5096016;28;20024;-69
2022/04/15 08:13:12;;;;;;;3.30;1.90;;;11.70;66.20;;;;;;5099237;27;20110;-68
2022/04/15 08:15:38;;;;;;;3.03;1.90;;;11.70;66.60;;;;;;5097407;27;20103;-69
2022/04/15 08:18:04;;;;;;;1.92;1.60;;;11.70;66.60;;;;;;5098616;27;20389;-69
2022/04/15 08:20:29;;;;;;;2.83;1.85;;;11.70;66.70;;;;;;5102110;27;20034;-69
2022/04/15 08:22:55;;;;;;;2.05;1.67;;;11.80;66.60;;;;;;5098110;28;20081;-69
2022/04/15 08:25:20;;;;;;;2.72;1.98;;;11.90;66.50;;;;;;5097285;27;20023;-69
2022/04/15 08:27:46;;;;;;;3.72;1.90;;;12.00;66.40;;;;;;5098375;27;20055;-69
2022/04/15 08:30:12;;;;;;;3.45;2.10;;;12.00;66.30;;;;;;5099502;28;20020;-69
2022/04/15 08:32:37;;;;;;;3.58;2.30;;;12.00;66.30;;;;;;5095295;27;20012;-69
2022/04/15 08:35:05;;;;;;;3.70;2.20;;;11.80;66.50;;;;;;5098606;28;20506;-69
2022/04/15 08:37:31;;;;;;;3.47;2.15;;;11.90;66.70;;;;;;5098149;28;20016;-69
2022/04/15 08:39:57;;;;;;;1.90;1.80;;;11.90;66.70;;;;;;5097871;28;20024;-70
2022/04/15 08:42:22;;;;;;;3.30;2.30;;;11.90;66.70;;;;;;5095886;28;20104;-69
2022/04/15 08:44:52;;;;;;;3.67;2.42;;;11.90;66.80;;;;;;5098320;28;20686;-69
2022/04/15 08:47:18;;;;;;;3.55;2.80;;;11.90;66.80;;;;;;5093375;28;20610;-69
2022/04/15 08:49:44;;;;;;;3.85;2.58;;;11.80;67.20;;;;;;5101217;28;20016;-67
2022/04/15 08:52:14;;;;;;;5.55;3.40;;;11.70;67.50;;;;;;5096104;28;20031;-68
2022/04/15 08:54:40;;;;;;;3.80;2.67;;;11.50;68.00;;;;;;5103532;28;20018;-68
2022/04/15 08:57:06;;;;;;;3.63;2.08;;;11.60;68.20;;;;;;5097891;28;20537;-70
2022/04/15 08:59:32;;;;;;;4.97;2.40;;;11.70;68.00;;;;;;5082801;28;20032;-69
2022/04/15 09:01:57;;;;;;;3.47;2.67;;;11.80;67.60;;;;;;5079071;28;20032;-70
2022/04/15 09:04:23;;;;;;;3.10;2.35;;;11.90;67.20;;;;;;5101439;28;20031;-70
2022/04/15 09:06:56;;;;;;;3.75;2.40;;;11.90;67.10;;;;;;5076724;28;20012;-69
2022/04/15 09:09:29;;;;;;;3.15;2.38;;;11.90;67.00;;;;;;5098840;28;20030;-70
2022/04/15 09:11:59;;;;;;;5.53;3.30;;;11.90;67.00;;;;;;5097380;28;20107;-70
2022/04/15 09:14:26;;;;;;;2.65;2.10;;;11.80;67.00;;;;;;5097777;28;20035;-69
2022/04/15 09:16:51;;;;;;;2.80;2.38;;;11.90;67.10;;;;;;5083040;28;20102;-69
2022/04/15 09:19:18;;;;;;;3.30;2.42;;;12.00;67.00;;;;;;5079083;28;20119;-68
2022/04/15 09:21:54;;;;;;;3.65;2.20;;;12.00;67.00;;;;;;5097177;28;20034;-69
2022/04/15 09:24:33;;;;;;;3.67;2.03;;;12.10;67.00;;;;;;5101220;28;20023;-70
2022/04/15 09:27:08;;;;;;;3.60;2.08;;;12.10;66.90;;;;;;5094996;28;20103;-69
2022/04/15 09:29:40;;;;;;;5.40;3.10;;;12.10;66.70;;;;;;5093604;28;20490;-71
2022/04/15 09:32:10;;;;;;;6.40;3.60;;;12.00;67.00;;;;;;5091922;28;20028;-70
2022/04/15 09:34:56;;;;;;;5.95;3.72;;;12.00;67.30;;;;;;5093063;28;20493;-69
2022/04/15 09:37:23;;;;;;;7.00;4.63;;;11.90;67.40;;;;;;5099023;28;20034;-71
2022/04/15 09:40:27;;;;;;;6.65;3.50;;;11.70;67.90;;;;;;5086729;28;20081;-69
2022/04/15 09:42:57;;;;;;;5.30;3.50;;;11.70;68.30;;;;;;4998064;28;20030;-70
2022/04/15 09:45:38;;;;;;;4.95;3.42;;;11.70;68.20;;;;;;5080654;28;20051;-70
2022/04/15 09:48:08;;;;;;;4.93;3.20;;;11.80;68.10;;;;;;5083685;28;20028;-69
2022/04/15 09:50:38;;;;;;;4.53;2.85;;;11.80;68.00;;;;;;5086052;28;20074;-70
2022/04/15 09:53:12;;;;;;;4.70;3.92;;;11.90;68.00;;;;;;5081291;28;20022;-70
2022/04/15 09:55:40;;;;;;;4.97;4.10;;;11.90;67.90;;;;;;5097433;28;20106;-69
2022/04/15 09:58:35;;;;;;;4.95;3.08;;;11.70;68.20;;;;;;5082460;28;20600;-69
2022/04/15 10:01:02;;;;;;;5.38;3.30;;;11.80;68.40;;;;;;5083384;28;20031;-70
2022/04/15 10:03:28;;;;;;;6.97;4.90;;;11.70;68.50;;;;;;5106169;28;20031;-69
2022/04/15 10:05:57;;;;;;;6.18;4.05;;;11.60;68.90;;;;;;5088878;28;20505;-69
2022/04/15 10:08:26;;;;;;;5.38;3.58;;;11.40;69.40;;;;;;5104466;27;20057;-70
2022/04/15 10:10:53;;;;;;;5.18;3.08;;;11.60;69.30;;;;;;5108361;28;20051;-70
2022/04/15 10:13:27;;;;;;;4.53;3.85;;;11.70;69.10;;;;;;5101030;28;20016;-69
2022/04/15 10:15:54;;;;;;;5.57;3.70;;;11.60;69.00;;;;;;5084781;28;20028;-69
2022/04/15 10:18:22;;;;;;;6.50;3.70;;;11.80;68.90;;;;;;5106540;27;20055;-70
2022/04/15 10:20:48;;;;;;;6.63;3.70;;;11.90;68.50;;;;;;5089834;28;20466;-70
2022/04/15 10:23:15;;;;;;;5.65;3.70;;;11.90;68.30;;;;;;5105085;28;20020;-69
2022/04/15 10:25:48;;;;;;;4.57;3.72;;;12.00;68.30;;;;;;5108509;28;20176;-69
2022/04/15 10:28:19;;;;;;;5.50;4.70;;;12.00;68.00;;;;;;5086737;28;20038;-70
2022/04/15 10:31:27;;;;;;;4.80;3.53;;;12.00;68.00;;;;;;5100846;27;20742;-69
2022/04/15 10:34:08;;;;;;;4.80;3.85;;;11.90;68.20;;;;;;5006290;28;20040;-69
2022/04/15 10:36:36;;;;;;;5.28;4.10;;;11.90;68.10;;;;;;5076749;28;20055;-70
2022/04/15 10:39:09;;;;;;;5.07;3.80;;;11.90;68.00;;;;;;5099049;28;20045;-70
2022/04/15 10:41:46;;;;;;;5.18;4.13;;;11.80;68.50;;;;;;5097846;28;20034;-69
2022/04/15 10:44:14;;;;;;;4.57;3.47;;;11.80;68.50;;;;;;5097031;28;20043;-69
2022/04/15 10:46:40;;;;;;;6.63;4.13;;;11.90;68.30;;;;;;5096883;27;20024;-70
2022/04/15 10:49:23;;;;;;;8.68;5.70;;;11.90;68.10;;;;;;5087397;28;20026;-69
2022/04/15 10:52:17;;;;;;;5.68;4.28;;;11.90;68.40;;;;;;5088586;28;20020;-70
2022/04/15 10:54:48;;;;;;;4.18;3.40;;;12.00;68.30;;;;;;5102771;28;20030;-70
2022/04/15 10:57:22;;;;;;;5.78;4.55;;;12.00;68.10;;;;;;5109822;27;20046;-71
2022/04/15 11:02:43;;;;;;;4.35;3.78;;;11.90;68.40;;;;;;5103572;28;20034;-68
2022/04/15 11:05:13;;;;;;;6.35;3.67;;;12.00;68.30;;;;;;5079399;28;20028;-69
2022/04/15 11:07:43;;;;;;;7.13;5.05;;;12.10;68.20;;;;;;5093186;28;20029;-70
2022/04/15 11:10:58;;;;;;;4.85;3.70;;;12.00;67.90;;;;;;5091561;28;20084;-70
2022/04/15 11:13:27;;;;;;;5.35;4.00;;;12.00;68.10;;;;;;5094537;28;20424;-69
2022/04/15 11:16:13;;;;;;;4.22;3.40;;;12.10;68.20;;;;;;5099816;28;20039;-69
2022/04/15 11:18:53;;;;;;;4.50;3.60;;;12.20;68.10;;;;;;5102531;27;20032;-69
2022/04/15 11:21:24;;;;;;;4.95;3.72;;;12.30;67.80;;;;;;5099899;28;20027;-70
2022/04/15 11:23:55;;;;;;;5.15;3.70;;;12.30;67.30;;;;;;5099371;28;20072;-70
2022/04/15 11:26:21;;;;;;;4.32;3.20;;;12.30;67.50;;;;;;5082439;28;20020;-70
2022/04/15 11:28:50;;;;;;;5.82;3.65;;;12.30;67.40;;;;;;5101840;28;20389;-70
2022/04/15 11:31:30;;;;;;;5.68;3.45;;;12.40;67.30;;;;;;5083033;28;20020;-70
2022/04/15 11:34:09;;;;;;;4.45;3.03;;;12.50;67.00;;;;;;5096264;28;20024;-70
2022/04/15 11:36:37;;;;;;;5.45;3.30;;;12.60;66.80;;;;;;5101213;28;20051;-70
2022/04/15 11:39:05;;;;;;;6.65;3.72;;;12.70;66.60;;;;;;5098130;28;20039;-70
2022/04/15 11:41:31;;;;;;;4.93;3.75;;;12.80;66.30;;;;;;5105414;28;20036;-71
2022/04/15 11:44:05;;;;;;;6.25;3.88;;;12.80;66.00;;;;;;5087154;28;20028;-70
2022/04/15 11:46:46;;;;;;;5.63;3.33;;;12.80;65.80;;;;;;5098863;28;20031;-71
2022/04/15 11:49:26;;;;;;;3.50;3.17;;;12.80;65.80;;;;;;5095782;28;20028;-70
2022/04/15 11:51:52;;;;;;;5.07;3.35;;;13.00;65.40;;;;;;5098834;28;20184;-69
2022/04/15 11:54:35;;;;;;;4.82;3.35;;;13.00;64.90;;;;;;5103647;28;20043;-70
2022/04/15 11:57:05;;;;;;;3.28;2.95;;;13.10;64.60;;;;;;5100501;28;20024;-70
2022/04/15 11:59:42;;;;;;;4.32;3.70;;;13.20;64.40;;;;;;5093778;28;20021;-69
2022/04/15 12:02:09;;;;;;;4.50;3.25;;;13.20;64.00;;;;;;5100906;28;20063;-69
2022/04/15 12:04:35;;;;;;;3.67;2.88;;;13.30;64.00;;;;;;5097503;28;20027;-69
2022/04/15 12:07:00;;;;;;;4.50;3.35;;;13.40;63.70;;;;;;5105999;28;20399;-70
2022/04/15 12:09:26;;;;;;;3.53;2.67;;;13.50;63.60;;;;;;5093076;28;20471;-70
2022/04/15 12:11:53;;;;;;;3.40;2.78;;;13.40;63.40;;;;;;5091825;28;20490;-70
2022/04/15 12:14:19;;;;;;;4.25;3.25;;;13.40;63.60;;;;;;5095213;28;20022;-70
2022/04/15 12:16:46;;;;;;;3.65;3.00;;;13.40;63.50;;;;;;5089367;28;20027;-70
2022/04/15 12:19:12;;;;;;;4.90;2.80;;;13.50;63.40;;;;;;5072460;28;20055;-70
2022/04/15 12:21:38;;;;;;;5.40;4.30;;;13.50;63.30;;;;;;5090949;28;20470;-70
2022/04/15 12:24:13;;;;;;;4.95;3.95;;;13.50;62.80;;;;;;5099501;28;20054;-70
2022/04/15 12:26:50;;;;;;;4.90;3.85;;;13.40;62.90;;;;;;5083039;27;20032;-70
2022/04/15 12:32:16;;;;;;;4.40;3.38;;;13.50;62.80;;;;;;5100550;28;20026;-70
2022/04/15 12:34:50;;;;;;;5.43;3.40;;;13.40;63.10;;;;;;5100684;28;20031;-69
2022/04/15 12:37:53;;;;;;;4.05;3.38;;;13.50;63.10;;;;;;5102349;28;20069;-70
2022/04/15 12:40:21;;;;;;;4.57;3.70;;;13.50;62.90;;;;;;5080575;28;20032;-69
2022/04/15 12:42:49;;;;;;;4.32;3.38;;;13.50;62.90;;;;;;5101348;28;20088;-69
2022/04/15 12:45:24;;;;;;;4.78;3.58;;;13.50;62.80;;;;;;5099138;28;20024;-70
2022/04/15 12:48:00;;;;;;;5.43;3.65;;;13.60;62.80;;;;;;5100760;28;20028;-70
2022/04/15 12:50:30;;;;;;;4.50;3.42;;;13.60;62.70;;;;;;5078641;28;20559;-70
2022/04/15 12:52:56;;;;;;;4.60;2.83;;;13.60;62.70;;;;;;5081954;28;20038;-70
2022/04/15 12:55:32;;;;;;;4.53;3.65;;;13.70;62.70;;;;;;5097065;28;20401;-70
2022/04/15 12:57:59;;;;;;;5.40;3.33;;;13.80;62.50;;;;;;5100794;28;20031;-68
2022/04/15 13:00:26;;;;;;;4.30;3.78;;;13.80;62.30;;;;;;5097401;28;20016;-70
2022/04/15 13:02:52;;;;;;;4.57;3.47;;;13.70;62.20;;;;;;5080906;28;20035;-69
2022/04/15 13:05:18;;;;;;;4.97;3.80;;;13.50;62.20;;;;;;5100996;28;20402;-70